Accueil
Images satellite Prévisions 10 joursClimatMétéo marine Cyclones Foudre AéroportsFAQ Actualités A propos
Météo : Europe Afrique Amérique du Nord Amérique du Sud Asie Australie-Océanie Autres
Langues Contact

Bauru, São Paulo, Brésil

latitude: 22-19S, longitude: 049-04W, altitude: 590 m


METAR: SBBU 282305Z 35003KT 8000 OVC004 18/17 Q1016
TAF: SBBU 281530Z 2818/2906 26008KT 9999 SCT035 TX22/2818Z TN13/2906Z PROB40 2818/2820 4000 TSRA BR BKN005 FEW035CB RMK PCF

Heure: 20:55 (23:55 UTC)

Observation

Le bulletin a été fait il y a 50 minutes, à 23:05 UTC
Vent 3 kt de nord
Température 18°C
Humidité 94%
Pression 1016 hPa
Visibilité: 8000 m
Ciel couvert à une hauteur de 400 ft

Changer d'unités

Prévision

Le bulletin a été fait il y a 8 heures et 25 minutes, à 15:30 UTC
Prévision valable du 28 à 18 UTC au 29 à 06 UTC
Vent 8 kt de ouest
Visibilité 10 km ou plus
Nuages épars à une hauteur de 3500 ft
Probabilité 40%
du 28 à 18 UTC au 28 à 20 UTC
Visibilité: 4000 m
Nuages fragmentés à une hauteur de 500 ft
Quelques nuages à une hauteur de 3500 ft, Cumulonimbus.
orage, pluie, brume
Les informations qui figurent sur ce site font l'objet d'une clause de non-responsabilité
Météo : Europe Afrique Amérique du Nord Amérique du Sud Asie Australie-Océanie Autres
Images satellite Prévisions 10 joursClimatMétéo marine Cyclones Foudre AéroportsFAQ Langues Contact Actualités A propos